createdAt,value
2018-09-10T00:02:17.313Z,2.30
2018-09-10T00:07:20.379Z,3.33
2018-09-10T00:12:23.464Z,2.90
2018-09-10T00:17:26.520Z,3.13
2018-09-10T00:22:29.589Z,2.73
2018-09-10T00:27:32.652Z,2.83
2018-09-10T00:32:35.712Z,2.97
2018-09-10T00:37:38.772Z,2.77
2018-09-10T00:42:41.837Z,2.50
2018-09-10T00:47:44.917Z,2.70
2018-09-10T00:52:47.975Z,3.17
2018-09-10T00:57:51.064Z,3.10
2018-09-10T01:02:54.125Z,2.93
2018-09-10T01:07:57.196Z,3.10
2018-09-10T01:29:24.501Z,3.10
2018-09-10T01:34:33.096Z,3.10
2018-09-10T01:39:36.156Z,3.17
2018-09-10T01:44:39.224Z,2.93
2018-09-10T01:49:42.268Z,3.17
2018-09-10T01:54:45.308Z,3.00
2018-09-10T01:59:48.363Z,2.93
2018-09-10T02:04:51.429Z,3.00
2018-09-10T02:09:54.472Z,3.30
2018-09-10T02:14:57.519Z,3.27
2018-09-10T02:20:00.573Z,2.80
2018-09-10T02:25:03.644Z,2.97
2018-09-10T02:30:07.070Z,2.60
2018-09-10T02:35:10.133Z,3.13
2018-09-10T02:40:13.180Z,3.20
2018-09-10T02:45:16.242Z,3.67
2018-09-10T02:50:19.394Z,3.13
2018-09-10T02:55:22.439Z,2.77
2018-09-10T03:00:25.908Z,3.57
2018-09-10T03:05:28.976Z,3.33
2018-09-10T03:10:32.027Z,3.53
2018-09-10T03:15:35.096Z,3.70
2018-09-10T03:20:38.144Z,3.43
2018-09-10T03:25:41.224Z,3.13
2018-09-10T03:30:44.294Z,3.50
2018-09-10T03:35:47.369Z,3.67
2018-09-10T03:40:50.421Z,3.20
2018-09-10T03:45:53.470Z,3.50
2018-09-10T03:50:56.526Z,3.13
2018-09-10T03:55:59.605Z,2.70
2018-09-10T04:01:02.685Z,4.40
2018-09-10T04:06:05.866Z,3.40
2018-09-10T04:11:09.024Z,3.40
2018-09-10T04:16:12.097Z,3.60
2018-09-10T04:21:15.197Z,4.10
2018-09-10T04:26:18.257Z,3.33
2018-09-10T04:31:21.329Z,3.93
2018-09-10T04:36:24.406Z,3.80
2018-09-10T04:41:32.810Z,3.67
2018-09-10T04:46:36.488Z,3.57
2018-09-10T04:51:39.544Z,3.50
2018-09-10T05:13:06.296Z,3.50
2018-09-10T05:18:09.368Z,4.40
2018-09-10T05:23:12.467Z,3.77
2018-09-10T05:28:15.603Z,3.97
2018-09-10T05:33:18.651Z,4.33
2018-09-10T05:38:21.743Z,4.53
2018-09-10T05:43:24.816Z,4.07
2018-09-10T05:48:27.917Z,8.63
2018-09-10T05:53:30.981Z,6.23
2018-09-10T05:58:34.059Z,4.73
2018-09-10T06:03:37.135Z,5.30
2018-09-10T06:08:40.265Z,4.80
2018-09-10T06:13:43.328Z,4.47
2018-09-10T06:18:46.421Z,5.10
2018-09-10T06:23:49.514Z,4.90
2018-09-10T06:28:52.650Z,4.80
2018-09-10T06:34:02.311Z,5.23
2018-09-10T06:39:08.213Z,5.40
2018-09-10T06:44:11.294Z,4.77
2018-09-10T06:49:14.371Z,4.93
2018-09-10T06:54:17.464Z,4.77
2018-09-10T06:59:20.528Z,4.93
2018-09-10T07:04:23.599Z,4.47
2018-09-10T07:25:51.149Z,4.40
2018-09-10T07:30:54.225Z,4.73
2018-09-10T07:35:57.297Z,4.13
2018-09-10T07:41:00.381Z,3.83
2018-09-10T07:46:03.452Z,3.93
2018-09-10T07:51:06.508Z,4.13
2018-09-10T08:12:34.101Z,2.80
2018-09-10T08:17:37.164Z,2.90
2018-09-10T08:22:40.224Z,2.80
2018-09-10T08:27:43.271Z,2.30
2018-09-10T08:32:46.336Z,2.77
2018-09-10T08:37:49.396Z,2.30
2018-09-10T08:42:52.464Z,2.10
2018-09-10T08:47:55.519Z,1.90
2018-09-10T08:52:58.584Z,1.87
2018-09-10T08:58:01.652Z,1.83
2018-09-10T09:03:04.989Z,2.13
2018-09-10T09:08:08.102Z,2.40
2018-09-10T09:13:11.136Z,1.60
2018-09-10T09:18:14.182Z,1.97
2018-09-10T09:23:17.432Z,1.80
2018-09-10T09:28:20.610Z,1.90
2018-09-10T09:33:23.678Z,1.90
2018-09-10T09:38:32.112Z,1.90
2018-09-10T09:43:40.617Z,1.53
2018-09-10T09:48:43.680Z,1.77
2018-09-10T09:53:46.731Z,1.53
2018-09-10T09:58:50.200Z,1.73
2018-09-10T10:03:55.045Z,1.50
2018-09-10T10:08:58.107Z,1.50
2018-09-10T10:14:07.560Z,2.27
2018-09-10T10:19:10.603Z,1.57
2018-09-10T10:24:13.672Z,1.70
2018-09-10T10:29:16.733Z,1.50
2018-09-10T10:34:19.800Z,1.53
2018-09-10T10:55:48.093Z,1.50
2018-09-10T11:00:51.181Z,1.23
2018-09-10T11:05:54.246Z,1.50
2018-09-10T11:10:57.332Z,1.30
2018-09-10T11:16:00.410Z,1.50
2018-09-10T11:21:03.507Z,1.50
2018-09-10T11:26:06.614Z,1.47
2018-09-10T11:31:09.681Z,1.10
2018-09-10T11:36:12.752Z,1.33
2018-09-10T11:41:15.818Z,1.50
2018-09-10T11:46:18.885Z,1.00
2018-09-10T11:51:22.030Z,1.40
2018-09-10T11:56:25.105Z,1.33
2018-09-10T12:17:53.424Z,1.17
2018-09-10T12:39:21.747Z,1.10
2018-09-10T12:44:24.762Z,1.20
2018-09-10T13:05:51.750Z,1.07
2018-09-10T13:10:54.832Z,1.07
2018-09-10T13:15:57.886Z,1.40
2018-09-10T13:21:00.952Z,1.20
2018-09-10T13:26:04.019Z,1.27
2018-09-10T13:31:07.108Z,1.10
2018-09-10T13:36:10.196Z,1.57
2018-09-10T13:57:37.873Z,1.30
2018-09-10T14:19:05.763Z,1.00
2018-09-10T14:40:33.239Z,1.20
2018-09-10T14:45:36.316Z,1.03
2018-09-10T14:50:39.383Z,1.00
2018-09-10T14:55:42.462Z,1.40
2018-09-10T15:00:45.531Z,1.00
2018-09-10T15:05:48.608Z,1.30
2018-09-10T15:10:51.665Z,1.30
2018-09-10T15:32:19.054Z,1.50
2018-09-10T15:37:22.138Z,1.70
2018-09-10T15:42:25.194Z,1.40
2018-09-10T16:03:53.286Z,1.47
2018-09-10T16:08:56.401Z,1.53
2018-09-10T16:13:59.473Z,1.40
2018-09-10T16:35:27.139Z,1.70
2018-09-10T16:56:55.467Z,1.43
2018-09-10T17:18:22.959Z,2.60
2018-09-10T17:23:26.024Z,1.83
2018-09-10T17:28:29.096Z,2.30
2018-09-10T17:33:32.178Z,2.07
2018-09-10T17:55:00.659Z,1.57
2018-09-10T18:00:03.763Z,2.10
2018-09-10T18:05:07.076Z,2.30
2018-09-10T18:10:10.152Z,2.20
2018-09-10T18:15:13.208Z,2.27
2018-09-10T18:20:16.264Z,2.17
2018-09-10T18:25:19.329Z,1.93
2018-09-10T18:30:22.401Z,2.20
2018-09-10T18:35:25.457Z,2.20
2018-09-10T18:40:28.514Z,2.80
2018-09-10T19:01:56.180Z,1.80
2018-09-10T19:06:59.232Z,1.80
2018-09-10T19:12:02.317Z,2.20
2018-09-10T19:33:30.185Z,2.00
2018-09-10T19:54:57.717Z,2.17
2018-09-10T20:00:00.785Z,2.13
2018-09-10T20:21:28.868Z,2.83
2018-09-10T20:26:31.953Z,3.00
2018-09-10T20:31:35.004Z,2.40
2018-09-10T20:36:38.801Z,2.33
2018-09-10T20:41:41.864Z,2.60
2018-09-10T20:46:44.921Z,2.23
2018-09-10T20:51:47.988Z,2.33
2018-09-10T20:56:51.074Z,2.20
2018-09-10T21:01:54.132Z,2.30
2018-09-10T21:06:57.212Z,2.87
2018-09-10T21:12:00.282Z,2.47
2018-09-10T21:17:03.337Z,2.30
2018-09-10T21:22:06.471Z,2.17
2018-09-10T21:27:09.511Z,2.50
2018-09-10T21:32:12.560Z,2.47
2018-09-10T21:37:15.621Z,2.37
2018-09-10T21:42:18.677Z,2.93
2018-09-10T21:47:21.738Z,2.30
2018-09-10T21:52:24.835Z,2.80
2018-09-10T21:57:27.892Z,2.90
2018-09-10T22:02:30.968Z,2.87
2018-09-10T22:07:34.020Z,2.93
2018-09-10T22:12:37.084Z,2.60
2018-09-10T22:17:40.138Z,2.87
2018-09-10T22:22:43.196Z,2.73
2018-09-10T22:27:46.246Z,2.93
2018-09-10T22:49:13.457Z,3.00
2018-09-10T22:54:16.523Z,2.97
2018-09-10T22:59:19.577Z,3.07
2018-09-10T23:04:22.634Z,3.53
2018-09-10T23:09:25.692Z,2.93
2018-09-10T23:14:28.767Z,3.03
2018-09-10T23:19:31.825Z,3.53
2018-09-10T23:24:34.884Z,3.77
2018-09-10T23:29:37.943Z,3.70
2018-09-10T23:34:41.010Z,4.20
2018-09-10T23:39:44.054Z,3.90
2018-09-10T23:44:47.116Z,3.73
2018-09-10T23:49:50.168Z,3.47
2018-09-10T23:54:53.234Z,3.30
2018-09-10T23:59:56.290Z,3.80
